createdAt,value
2023-04-01T00:01:01.320Z,52.67
2023-04-01T00:03:30.682Z,51.22
2023-04-01T00:05:58.873Z,48.55
2023-04-01T00:08:30.334Z,44.58
2023-04-01T00:10:58.132Z,46.03
2023-04-01T00:13:26.587Z,42.63
2023-04-01T00:15:54.845Z,44.85
2023-04-01T00:18:22.438Z,46.65
2023-04-01T00:20:52.601Z,46.35
2023-04-01T00:23:23.445Z,44.90
2023-04-01T00:25:51.247Z,49.30
2023-04-01T00:28:19.466Z,46.95
2023-04-01T00:30:47.325Z,46.42
2023-04-01T00:33:15.278Z,48.30
2023-04-01T00:35:42.930Z,42.13
2023-04-01T00:38:14.499Z,50.10
2023-04-01T00:40:43.157Z,45.03
2023-04-01T00:43:13.017Z,51.17
2023-04-01T00:45:42.018Z,45.65
2023-04-01T00:48:12.224Z,44.30
2023-04-01T00:50:41.990Z,42.95
2023-04-01T00:53:10.334Z,43.20
2023-04-01T00:55:41.366Z,49.90
2023-04-01T00:58:13.405Z,47.33
2023-04-01T01:00:41.013Z,48.72
2023-04-01T01:03:08.957Z,44.55
2023-04-01T01:05:48.771Z,47.05
2023-04-01T01:08:19.102Z,53.10
2023-04-01T01:10:51.401Z,48.67
2023-04-01T01:13:21.308Z,46.63
2023-04-01T01:15:50.971Z,41.20
2023-04-01T01:18:21.784Z,48.92
2023-04-01T01:21:03.906Z,52.78
2023-04-01T01:23:49.445Z,50.33
2023-04-01T01:26:36.006Z,48.38
2023-04-01T01:29:07.389Z,53.63
2023-04-01T01:31:38.689Z,48.60
2023-04-01T01:34:11.520Z,54.15
2023-04-01T01:36:43.649Z,51.92
2023-04-01T01:39:11.924Z,53.10
2023-04-01T01:41:41.061Z,53.08
2023-04-01T01:44:10.312Z,52.90
2023-04-01T01:46:38.366Z,44.17
2023-04-01T01:49:07.780Z,55.97
2023-04-01T01:51:35.816Z,51.05
2023-04-01T01:54:04.671Z,55.08
2023-04-01T01:56:32.768Z,56.40
2023-04-01T01:59:02.072Z,58.90
2023-04-01T02:01:31.936Z,54.05
2023-04-01T02:04:00.061Z,57.35
2023-04-01T02:06:28.313Z,51.47
2023-04-01T02:08:57.790Z,52.28
2023-04-01T02:11:28.347Z,58.00
2023-04-01T02:13:58.071Z,47.42
2023-04-01T02:16:28.165Z,52.00
2023-04-01T02:18:56.774Z,50.92
2023-04-01T02:21:26.589Z,58.92
2023-04-01T02:23:54.750Z,51.90
2023-04-01T02:26:23.168Z,59.50
2023-04-01T02:28:53.089Z,53.72
2023-04-01T02:31:22.056Z,58.65
2023-04-01T02:33:50.012Z,53.88
2023-04-01T02:36:18.059Z,49.30
2023-04-01T02:38:46.853Z,45.88
2023-04-01T02:41:14.396Z,50.95
2023-04-01T02:43:41.924Z,55.72
2023-04-01T02:46:10.888Z,51.72
2023-04-01T02:48:38.495Z,54.70
2023-04-01T02:51:06.024Z,51.33
2023-04-01T02:53:33.568Z,54.70
2023-04-01T02:56:01.308Z,50.95
2023-04-01T02:58:28.775Z,50.70
2023-04-01T03:00:56.334Z,50.95
2023-04-01T03:03:25.402Z,52.78
2023-04-01T03:05:52.972Z,51.85
2023-04-01T03:08:20.416Z,50.42
2023-04-01T03:10:47.975Z,55.33
2023-04-01T03:13:15.507Z,53.75
2023-04-01T03:15:43.074Z,52.55
2023-04-01T03:18:10.728Z,48.90
2023-04-01T03:20:39.657Z,57.40
2023-04-01T03:23:07.647Z,51.40
2023-04-01T03:25:35.358Z,48.67
2023-04-01T03:28:03.174Z,48.83
2023-04-01T03:30:32.336Z,54.75
2023-04-01T03:33:00.863Z,62.17
2023-04-01T03:35:28.505Z,58.03
2023-04-01T03:37:57.346Z,45.88
2023-04-01T03:40:25.084Z,47.55
2023-04-01T03:42:53.121Z,49.25
2023-04-01T03:45:20.821Z,48.70
2023-04-01T03:47:48.430Z,52.33
2023-04-01T03:50:16.014Z,50.78
2023-04-01T03:52:43.498Z,43.80
2023-04-01T03:55:12.583Z,52.20
2023-04-01T03:57:40.332Z,42.92
2023-04-01T04:00:09.720Z,48.00
2023-04-01T04:02:37.606Z,45.33
2023-04-01T04:05:05.525Z,47.83
2023-04-01T04:07:33.008Z,46.10
2023-04-01T04:10:00.883Z,45.83
2023-04-01T04:12:30.087Z,47.53
2023-04-01T04:14:58.663Z,47.47
2023-04-01T04:17:26.352Z,42.00
2023-04-01T04:19:53.854Z,49.88
2023-04-01T04:22:21.372Z,50.05
2023-04-01T04:24:48.928Z,47.13
2023-04-01T04:27:16.468Z,49.70
2023-04-01T04:29:45.468Z,49.28
2023-04-01T04:32:13.180Z,51.58
2023-04-01T04:34:40.715Z,49.58
2023-04-01T04:37:08.235Z,51.28
2023-04-01T04:39:35.844Z,47.35
2023-04-01T04:42:03.363Z,43.88
2023-04-01T04:44:31.002Z,44.45
2023-04-01T04:46:59.925Z,44.63
2023-04-01T04:49:27.495Z,49.33
2023-04-01T04:51:55.035Z,46.22
2023-04-01T04:54:22.627Z,48.50
2023-04-01T04:56:50.185Z,51.42
2023-04-01T04:59:17.702Z,47.03
2023-04-01T05:01:45.349Z,46.50
2023-04-01T05:04:14.371Z,40.25
2023-04-01T05:06:42.073Z,35.05
2023-04-01T05:09:09.618Z,41.33
2023-04-01T05:11:37.095Z,38.45
2023-04-01T05:14:07.335Z,40.67
2023-04-01T05:16:34.918Z,40.88
2023-04-01T05:19:02.462Z,37.58
2023-04-01T05:21:33.953Z,40.58
2023-04-01T05:24:01.573Z,31.70
2023-04-01T05:26:29.301Z,32.22
2023-04-01T05:28:56.783Z,33.42
2023-04-01T05:31:25.309Z,39.28
2023-04-01T05:33:53.066Z,35.38
2023-04-01T05:36:20.608Z,31.98
2023-04-01T05:38:49.998Z,31.48
2023-04-01T05:41:17.521Z,32.65
2023-04-01T05:43:45.025Z,32.28
2023-04-01T05:46:12.546Z,38.60
2023-04-01T05:48:40.521Z,29.10
2023-04-01T05:51:08.126Z,29.27
2023-04-01T05:53:36.917Z,34.70
2023-04-01T05:56:10.285Z,34.38
2023-04-01T05:58:38.547Z,36.70
2023-04-01T06:01:11.509Z,36.28
2023-04-01T06:03:40.628Z,31.45
2023-04-01T06:06:14.708Z,34.05
2023-04-01T06:08:42.325Z,34.20
2023-04-01T06:11:18.308Z,35.17
2023-04-01T06:13:53.124Z,33.22
2023-04-01T06:16:24.765Z,33.63
2023-04-01T06:19:16.299Z,29.42
2023-04-01T06:21:58.011Z,22.52
2023-04-01T06:24:32.884Z,23.35
2023-04-01T06:27:06.222Z,26.23
2023-04-01T06:29:55.320Z,29.20
2023-04-01T06:32:56.225Z,28.30
2023-04-01T06:35:45.061Z,30.00
2023-04-01T06:38:19.374Z,33.35
2023-04-01T06:43:20.769Z,31.50
2023-04-01T06:45:50.094Z,29.75
2023-04-01T06:48:28.739Z,28.35
2023-04-01T06:51:22.116Z,38.67
2023-04-01T06:53:54.331Z,30.50
2023-04-01T06:56:25.236Z,36.88
2023-04-01T06:58:56.129Z,27.15
2023-04-01T07:01:26.244Z,21.70
2023-04-01T07:03:55.684Z,23.13
2023-04-01T07:06:28.025Z,21.17
2023-04-01T07:08:56.777Z,31.02
2023-04-01T07:11:27.199Z,21.80
2023-04-01T07:13:57.460Z,19.90
2023-04-01T07:16:29.678Z,21.75
2023-04-01T07:18:59.992Z,20.13
2023-04-01T07:21:36.627Z,21.85
2023-04-01T07:24:11.378Z,18.77
2023-04-01T07:26:39.037Z,29.02
2023-04-01T07:29:11.974Z,22.42
2023-04-01T07:31:46.000Z,22.15
2023-04-01T07:34:17.802Z,20.17
2023-04-01T07:36:48.979Z,22.27
2023-04-01T07:39:25.547Z,22.83
2023-04-01T07:41:55.891Z,23.67
2023-04-01T07:44:33.150Z,25.50
2023-04-01T07:47:19.395Z,29.52
2023-04-01T07:49:52.264Z,25.17
2023-04-01T07:52:24.912Z,25.63
2023-04-01T07:54:55.511Z,27.65
2023-04-01T08:00:20.744Z,18.52
2023-04-01T08:03:04.902Z,19.48
2023-04-01T08:05:36.999Z,24.20
2023-04-01T08:08:09.730Z,20.30
2023-04-01T08:13:37.929Z,25.15
2023-04-01T08:40:23.600Z,27.15
2023-04-01T08:43:21.401Z,23.70
2023-04-01T08:45:58.987Z,20.00
2023-04-01T08:48:41.117Z,24.02
2023-04-01T08:51:27.338Z,26.42
2023-04-01T08:56:58.944Z,31.88
2023-04-01T08:59:36.349Z,33.88
2023-04-01T09:02:23.801Z,29.50
2023-04-01T09:05:09.723Z,34.15
2023-04-01T09:07:47.723Z,33.15
2023-04-01T09:13:42.962Z,30.85
2023-04-01T09:16:27.622Z,34.65
2023-04-01T09:19:18.638Z,34.28
2023-04-01T09:22:00.520Z,34.95
2023-04-01T09:24:48.779Z,33.95
2023-04-01T09:27:20.669Z,26.35
2023-04-01T09:30:18.279Z,35.88
2023-04-01T09:33:06.520Z,34.13
2023-04-01T09:35:41.072Z,32.20
2023-04-01T09:38:20.131Z,34.28
2023-04-01T09:40:51.534Z,30.42
2023-04-01T09:43:25.421Z,30.17
2023-04-01T09:46:00.636Z,34.47
2023-04-01T09:48:41.765Z,31.08
2023-04-01T09:51:16.182Z,33.67
2023-04-01T09:53:50.731Z,28.05
2023-04-01T09:56:29.734Z,28.77
2023-04-01T09:59:11.418Z,34.20
2023-04-01T10:01:46.235Z,29.88
2023-04-01T10:04:31.687Z,26.23
2023-04-01T10:07:18.051Z,26.00
2023-04-01T10:10:07.403Z,21.55
2023-04-01T10:12:56.243Z,23.58
2023-04-01T10:15:42.265Z,16.67
2023-04-01T10:18:28.295Z,21.13
2023-04-01T10:21:16.257Z,20.35
2023-04-01T10:23:59.311Z,22.02
2023-04-01T10:26:40.631Z,20.45
2023-04-01T10:29:46.520Z,19.90
2023-04-01T10:32:40.939Z,22.38
2023-04-01T10:35:24.584Z,23.38
2023-04-01T10:38:12.274Z,19.23
2023-04-01T10:41:06.597Z,21.40
2023-04-01T10:43:52.668Z,21.10
2023-04-01T10:46:40.614Z,18.05
2023-04-01T10:49:27.487Z,19.25
2023-04-01T10:52:25.478Z,19.13
2023-04-01T10:55:01.903Z,23.48
2023-04-01T10:57:47.628Z,16.70
2023-04-01T11:00:32.548Z,12.20
2023-04-01T11:03:18.226Z,15.10
2023-04-01T11:06:14.426Z,19.38
2023-04-01T11:09:00.637Z,14.98
2023-04-01T11:11:49.050Z,18.35
2023-04-01T11:14:29.931Z,18.67
2023-04-01T11:17:24.637Z,13.93
2023-04-01T11:20:07.191Z,13.77
2023-04-01T11:22:46.967Z,16.15
2023-04-01T11:25:22.700Z,15.10
2023-04-01T11:27:56.095Z,14.73
2023-04-01T11:30:34.974Z,12.93
2023-04-01T11:33:04.521Z,13.63
2023-04-01T11:35:51.123Z,18.52
2023-04-01T11:38:27.083Z,11.68
2023-04-01T11:40:59.085Z,19.35
2023-04-01T11:43:33.851Z,9.68
2023-04-01T11:46:07.178Z,12.68
2023-04-01T11:48:49.667Z,12.07
2023-04-01T11:51:35.016Z,16.20
2023-04-01T11:54:07.411Z,13.55
2023-04-01T11:56:42.403Z,11.43
2023-04-01T11:59:31.945Z,15.20
2023-04-01T12:02:06.497Z,16.85
2023-04-01T12:04:40.950Z,19.08
2023-04-01T12:07:14.508Z,15.80
2023-04-01T12:10:06.642Z,13.45
2023-04-01T12:12:54.000Z,18.02
2023-04-01T12:18:45.047Z,15.00
2023-04-01T12:21:21.863Z,11.63
2023-04-01T12:24:07.265Z,18.98
2023-04-01T12:27:09.105Z,13.43
2023-04-01T12:33:25.827Z,12.30
2023-04-01T12:35:57.532Z,13.65
2023-04-01T12:38:34.563Z,12.57
2023-04-01T12:41:09.672Z,14.13
2023-04-01T12:43:47.773Z,11.18
2023-04-01T12:46:18.324Z,11.80
2023-04-01T12:49:01.029Z,12.68
2023-04-01T12:51:37.091Z,12.43
2023-04-01T12:54:30.726Z,14.57
2023-04-01T12:57:04.359Z,13.50
2023-04-01T12:59:43.921Z,12.40
2023-04-01T13:02:22.647Z,18.58
2023-04-01T13:05:23.425Z,11.75
2023-04-01T13:08:01.616Z,14.63
2023-04-01T13:10:46.843Z,12.40
2023-04-01T13:13:32.060Z,10.30
2023-04-01T13:16:04.726Z,11.40
2023-04-01T13:18:38.366Z,12.13
2023-04-01T13:21:08.325Z,10.75
2023-04-01T13:23:40.612Z,9.27
2023-04-01T13:26:14.716Z,8.93
2023-04-01T13:28:45.996Z,8.23
2023-04-01T13:31:23.748Z,11.95
2023-04-01T13:33:55.654Z,6.72
2023-04-01T13:36:30.325Z,6.65
2023-04-01T13:39:02.929Z,7.05
2023-04-01T13:41:36.766Z,5.57
2023-04-01T13:44:09.149Z,7.70
2023-04-01T13:46:43.694Z,6.97
2023-04-01T13:49:22.321Z,8.07
2023-04-01T13:51:58.760Z,7.63
2023-04-01T13:54:57.366Z,8.98
2023-04-01T13:57:36.109Z,9.50
2023-04-01T14:00:18.547Z,9.25
2023-04-01T14:02:59.463Z,8.75
2023-04-01T14:05:43.389Z,7.90
2023-04-01T14:10:41.396Z,6.38
2023-04-01T14:13:13.171Z,7.65
2023-04-01T14:16:00.380Z,9.60
2023-04-01T14:18:46.626Z,6.68
2023-04-01T14:21:20.573Z,7.80
2023-04-01T14:24:04.140Z,7.13
2023-04-01T14:27:00.153Z,7.30
2023-04-01T14:29:33.519Z,9.43
2023-04-01T14:32:04.517Z,8.00
2023-04-01T14:34:39.541Z,12.73
2023-04-01T14:37:17.758Z,7.75
2023-04-01T14:39:51.209Z,9.80
2023-04-01T14:42:44.176Z,7.77
2023-04-01T14:45:27.082Z,9.18
2023-04-01T14:47:56.905Z,7.82
2023-04-01T14:50:26.213Z,12.50
2023-04-01T14:53:11.203Z,8.30
2023-04-01T14:55:48.908Z,8.40
2023-04-01T14:58:17.227Z,15.48
2023-04-01T15:00:49.951Z,10.85
2023-04-01T15:03:20.377Z,11.93
2023-04-01T15:05:51.483Z,9.65
2023-04-01T15:08:22.467Z,7.13
2023-04-01T15:11:06.825Z,7.88
2023-04-01T15:13:46.310Z,9.88
2023-04-01T15:16:17.017Z,9.50
2023-04-01T15:18:48.558Z,7.45
2023-04-01T15:21:20.801Z,13.40
2023-04-01T15:23:57.118Z,10.02
2023-04-01T15:26:31.290Z,8.25
2023-04-01T15:29:05.204Z,11.50
2023-04-01T15:31:36.448Z,10.57
2023-04-01T15:34:24.674Z,12.95
2023-04-01T15:36:55.614Z,10.73
2023-04-01T15:39:27.456Z,8.02
2023-04-01T15:42:06.979Z,6.35
2023-04-01T15:44:53.318Z,9.43
2023-04-01T15:47:31.263Z,13.68
2023-04-01T15:50:21.228Z,11.57
2023-04-01T15:52:53.679Z,9.07
2023-04-01T15:55:27.292Z,10.88
2023-04-01T15:58:05.639Z,10.02
2023-04-01T16:00:33.908Z,9.48
2023-04-01T16:03:20.990Z,16.88
2023-04-01T16:06:02.076Z,9.63
2023-04-01T16:08:47.380Z,8.77
2023-04-01T16:11:21.706Z,10.77
2023-04-01T16:13:53.877Z,11.60
2023-04-01T16:16:28.160Z,7.45
2023-04-01T16:21:31.158Z,8.45
2023-04-01T16:24:00.253Z,11.20
2023-04-01T16:26:30.908Z,14.65
2023-04-01T16:29:05.747Z,11.52
2023-04-01T16:31:37.161Z,11.20
2023-04-01T16:34:12.908Z,8.32
2023-04-01T16:36:44.461Z,13.18
2023-04-01T16:39:19.825Z,11.95
2023-04-01T16:41:51.698Z,10.55
2023-04-01T16:44:21.577Z,13.82
2023-04-01T16:46:50.962Z,13.93
2023-04-01T16:49:25.258Z,13.82
2023-04-01T16:54:29.935Z,10.30
2023-04-01T16:57:04.967Z,13.70
2023-04-01T16:59:37.021Z,10.13
2023-04-01T17:02:06.358Z,9.80
2023-04-01T17:04:36.768Z,14.77
2023-04-01T17:07:09.297Z,11.50
2023-04-01T17:09:51.189Z,11.48
2023-04-01T17:12:27.779Z,10.98
2023-04-01T17:15:00.581Z,10.65
2023-04-01T17:17:33.818Z,15.43
2023-04-01T17:20:10.165Z,13.80
2023-04-01T17:22:43.335Z,15.07
2023-04-01T17:25:16.495Z,13.57
2023-04-01T17:27:50.652Z,15.80
2023-04-01T17:30:22.626Z,13.05
2023-04-01T17:32:57.446Z,14.05
2023-04-01T17:35:29.003Z,14.80
2023-04-01T17:38:01.681Z,11.55
2023-04-01T17:40:36.806Z,13.85
2023-04-01T17:43:09.820Z,14.50
2023-04-01T17:45:42.190Z,14.35
2023-04-01T17:48:13.211Z,10.68
2023-04-01T17:50:53.256Z,10.48
2023-04-01T17:53:28.676Z,13.45
2023-04-01T17:56:05.004Z,13.70
2023-04-01T17:58:37.332Z,13.35
2023-04-01T18:01:11.389Z,13.25
2023-04-01T18:03:57.547Z,17.27
2023-04-01T18:06:32.386Z,12.95
2023-04-01T18:09:01.904Z,14.05
2023-04-01T18:11:36.343Z,18.75
2023-04-01T18:14:22.259Z,16.80
2023-04-01T18:17:04.170Z,17.92
2023-04-01T18:19:37.695Z,16.27
2023-04-01T18:22:11.692Z,24.10
2023-04-01T18:24:44.993Z,23.10
2023-04-01T18:27:17.716Z,23.58
2023-04-01T18:29:51.690Z,19.60
2023-04-01T18:32:28.590Z,20.58
2023-04-01T18:34:58.569Z,18.50
2023-04-01T18:37:27.081Z,21.63
2023-04-01T18:39:56.127Z,20.70
2023-04-01T18:42:30.398Z,21.27
2023-04-01T18:47:32.339Z,19.95
2023-04-01T18:50:04.076Z,22.42
2023-04-01T18:52:35.219Z,20.90
2023-04-01T18:55:32.951Z,17.88
2023-04-01T18:58:13.673Z,15.82
2023-04-01T19:00:46.024Z,14.38
2023-04-01T19:03:20.511Z,19.38
2023-04-01T19:05:49.426Z,20.73
2023-04-01T19:08:21.083Z,19.00
2023-04-01T19:10:50.633Z,20.85
2023-04-01T19:13:21.692Z,18.48
2023-04-01T19:15:52.828Z,18.20
2023-04-01T19:18:38.184Z,16.73
2023-04-01T19:21:11.267Z,19.05
2023-04-01T19:23:53.610Z,19.13
2023-04-01T19:26:24.155Z,18.33
2023-04-01T19:28:56.161Z,24.55
2023-04-01T19:31:33.314Z,22.63
2023-04-01T19:34:07.560Z,22.02
2023-04-01T19:36:41.540Z,23.92
2023-04-01T19:39:15.521Z,25.10
2023-04-01T19:41:48.680Z,23.27
2023-04-01T19:44:25.787Z,27.35
2023-04-01T19:46:56.163Z,21.02
2023-04-01T19:49:32.975Z,20.75
2023-04-01T19:52:04.778Z,23.73
2023-04-01T19:54:36.019Z,22.70
2023-04-01T19:57:12.380Z,21.33
2023-04-01T19:59:41.678Z,20.55
2023-04-01T20:02:24.290Z,20.45
2023-04-01T20:04:55.581Z,19.80
2023-04-01T20:07:25.819Z,19.00
2023-04-01T20:09:59.882Z,18.08
2023-04-01T20:12:35.337Z,20.42
2023-04-01T20:15:06.264Z,27.60
2023-04-01T20:17:36.912Z,22.60
2023-04-01T20:20:17.406Z,19.77
2023-04-01T20:22:57.680Z,18.15
2023-04-01T20:25:26.573Z,20.88
2023-04-01T20:27:56.939Z,23.42
2023-04-01T20:30:51.533Z,23.88
2023-04-01T20:33:27.602Z,20.77
2023-04-01T20:36:07.050Z,21.70
2023-04-01T20:38:53.620Z,25.95
2023-04-01T20:41:25.249Z,28.90
2023-04-01T20:44:06.051Z,31.27
2023-04-01T20:46:42.868Z,33.33
2023-04-01T20:49:22.951Z,25.88
2023-04-01T20:51:55.653Z,33.28
2023-04-01T20:54:29.748Z,31.23
2023-04-01T20:57:03.180Z,27.90
2023-04-01T20:59:37.286Z,24.47
2023-04-01T21:02:10.590Z,20.60
2023-04-01T21:04:45.670Z,21.60
2023-04-01T21:07:16.946Z,28.05
2023-04-01T21:09:49.312Z,19.40
2023-04-01T21:12:22.008Z,24.50
2023-04-01T21:14:59.729Z,27.42
2023-04-01T21:17:32.910Z,26.85
2023-04-01T21:20:10.573Z,28.80
2023-04-01T21:22:43.121Z,29.83
2023-04-01T21:25:37.693Z,26.30
2023-04-01T21:28:13.186Z,23.38
2023-04-01T21:30:47.629Z,24.15
2023-04-01T21:33:31.344Z,29.23
2023-04-01T21:36:03.461Z,25.37
2023-04-01T21:38:37.757Z,21.67
2023-04-01T21:43:41.019Z,23.00
2023-04-01T21:46:30.271Z,26.95
2023-04-01T21:49:11.952Z,25.00
2023-04-01T21:52:11.533Z,22.83
2023-04-01T21:54:50.923Z,22.80
2023-04-01T21:57:37.104Z,24.98
2023-04-01T22:00:25.674Z,23.25
2023-04-01T22:03:19.774Z,25.70
2023-04-01T22:05:57.111Z,23.58
2023-04-01T22:08:32.357Z,23.58
2023-04-01T22:11:04.307Z,28.27
2023-04-01T22:13:34.736Z,22.30
2023-04-01T22:16:08.563Z,28.80
2023-04-01T22:18:39.029Z,28.58
2023-04-01T22:21:09.894Z,34.58
2023-04-01T22:23:41.625Z,28.15
2023-04-01T22:26:15.626Z,29.15
2023-04-01T22:28:48.358Z,27.27
2023-04-01T22:31:20.701Z,31.20
2023-04-01T22:33:54.066Z,25.67
2023-04-01T22:36:27.679Z,26.67
2023-04-01T22:39:00.852Z,22.25
2023-04-01T22:41:35.584Z,22.38
2023-04-01T22:44:03.112Z,27.73
2023-04-01T22:46:44.880Z,30.15
2023-04-01T22:49:17.634Z,24.75
2023-04-01T22:51:46.645Z,24.33
2023-04-01T22:54:19.326Z,23.13
2023-04-01T22:56:49.989Z,25.35
2023-04-01T22:59:19.705Z,23.88
2023-04-01T23:01:51.712Z,22.85
2023-04-01T23:04:23.791Z,21.67
2023-04-01T23:06:53.725Z,23.40
2023-04-01T23:09:22.079Z,20.60
2023-04-01T23:11:53.896Z,21.70
2023-04-01T23:14:38.079Z,20.77
2023-04-01T23:17:13.277Z,23.27
2023-04-01T23:19:44.619Z,21.20
2023-04-01T23:22:18.366Z,30.65
2023-04-01T23:24:49.390Z,20.55
2023-04-01T23:27:20.948Z,27.88
2023-04-01T23:29:48.416Z,21.48
2023-04-01T23:32:17.382Z,22.60
2023-04-01T23:34:49.238Z,21.85
2023-04-01T23:37:18.877Z,27.25
2023-04-01T23:39:47.426Z,28.05
2023-04-01T23:42:16.137Z,23.10
2023-04-01T23:44:45.486Z,25.38
2023-04-01T23:47:16.079Z,19.90
2023-04-01T23:49:45.696Z,24.83
2023-04-01T23:52:15.696Z,26.95
2023-04-01T23:54:45.687Z,20.70
2023-04-01T23:57:14.591Z,23.08
2023-04-01T23:59:42.436Z,25.77
